createdAt,value
2019-03-15T00:01:44.955Z,4.54
2019-03-15T00:04:13.626Z,4.54
2019-03-15T00:06:42.294Z,4.53
2019-03-15T00:09:10.980Z,4.45
2019-03-15T00:11:39.637Z,4.49
2019-03-15T00:14:08.325Z,4.43
2019-03-15T00:16:36.997Z,4.48
2019-03-15T00:19:05.676Z,4.50
2019-03-15T00:21:34.354Z,4.50
2019-03-15T00:24:03.029Z,4.44
2019-03-15T00:26:31.897Z,4.26
2019-03-15T00:29:00.584Z,4.23
2019-03-15T00:31:29.261Z,4.28
2019-03-15T00:33:57.989Z,4.29
2019-03-15T00:36:26.660Z,4.14
2019-03-15T00:38:55.376Z,4.16
2019-03-15T00:41:24.050Z,4.18
2019-03-15T00:43:52.709Z,4.19
2019-03-15T00:46:21.675Z,4.04
2019-03-15T00:48:50.347Z,3.98
2019-03-15T00:51:19.083Z,3.99
2019-03-15T00:53:47.765Z,4.04
2019-03-15T00:56:16.437Z,3.97
2019-03-15T00:58:45.114Z,4.04
2019-03-15T01:01:13.782Z,4.07
2019-03-15T01:03:42.452Z,4.09
2019-03-15T01:06:11.125Z,4.13
2019-03-15T01:08:39.805Z,4.14
2019-03-15T01:11:08.488Z,4.19
2019-03-15T01:13:37.251Z,4.15
2019-03-15T01:16:05.927Z,4.16
2019-03-15T01:18:34.578Z,4.04
2019-03-15T01:21:03.239Z,4.04
2019-03-15T01:23:31.906Z,3.93
2019-03-15T01:26:00.584Z,3.90
2019-03-15T01:28:29.251Z,4.00
2019-03-15T01:30:57.942Z,4.14
2019-03-15T01:33:26.580Z,4.24
2019-03-15T01:35:55.259Z,4.27
2019-03-15T01:38:23.932Z,4.20
2019-03-15T01:40:52.612Z,4.37
2019-03-15T01:43:21.280Z,4.38
2019-03-15T01:45:49.942Z,4.40
2019-03-15T01:48:18.632Z,4.43
2019-03-15T01:50:47.296Z,4.44
2019-03-15T01:53:15.962Z,4.48
2019-03-15T01:55:44.640Z,4.51
2019-03-15T01:58:13.328Z,4.49
2019-03-15T02:00:42.095Z,4.45
2019-03-15T02:03:10.776Z,4.43
2019-03-15T02:05:39.445Z,4.29
2019-03-15T02:08:08.124Z,4.16
2019-03-15T02:10:37.443Z,4.10
2019-03-15T02:13:06.464Z,4.03
2019-03-15T02:15:35.142Z,3.98
2019-03-15T02:18:03.825Z,3.94
2019-03-15T02:20:32.501Z,3.79
2019-03-15T02:23:01.205Z,3.72
2019-03-15T02:25:29.886Z,3.62
2019-03-15T02:27:58.567Z,3.57
2019-03-15T02:30:27.229Z,3.44
2019-03-15T02:32:55.920Z,3.35
2019-03-15T02:35:24.597Z,3.34
2019-03-15T02:37:53.262Z,3.31
2019-03-15T02:40:21.938Z,3.31
2019-03-15T02:42:50.739Z,3.31
2019-03-15T02:45:19.464Z,3.30
2019-03-15T02:47:48.171Z,3.30
2019-03-15T02:50:16.855Z,3.23
2019-03-15T02:52:45.562Z,3.10
2019-03-15T02:55:14.228Z,3.07
2019-03-15T02:57:42.896Z,3.06
2019-03-15T03:00:11.571Z,3.11
2019-03-15T03:02:40.250Z,3.08
2019-03-15T03:05:10.696Z,3.07
2019-03-15T03:07:39.788Z,3.00
2019-03-15T03:10:09.252Z,2.96
2019-03-15T03:12:38.143Z,2.90
2019-03-15T03:15:07.813Z,2.88
2019-03-15T03:17:36.476Z,2.77
2019-03-15T03:20:06.644Z,2.79
2019-03-15T03:22:36.353Z,2.68
2019-03-15T03:25:06.607Z,2.61
2019-03-15T03:27:35.294Z,2.61
2019-03-15T03:30:04.664Z,2.61
2019-03-15T03:32:33.365Z,2.54
2019-03-15T03:35:02.183Z,2.53
2019-03-15T03:37:30.933Z,2.44
2019-03-15T03:40:01.526Z,2.40
2019-03-15T03:42:30.008Z,2.37
2019-03-15T03:44:58.718Z,2.41
2019-03-15T03:47:27.384Z,2.27
2019-03-15T03:49:56.069Z,2.36
2019-03-15T03:52:24.743Z,2.31
2019-03-15T03:54:53.425Z,2.18
2019-03-15T03:57:22.093Z,2.19
2019-03-15T03:59:50.776Z,2.13
2019-03-15T04:02:19.553Z,2.09
2019-03-15T04:04:48.629Z,2.10
2019-03-15T04:07:17.524Z,1.99
2019-03-15T04:09:46.234Z,1.97
2019-03-15T04:12:14.907Z,1.98
2019-03-15T04:14:43.813Z,2.03
2019-03-15T04:17:12.665Z,1.96
2019-03-15T04:19:41.326Z,1.86
2019-03-15T04:22:10.024Z,1.73
2019-03-15T04:24:38.888Z,1.63
2019-03-15T04:27:07.555Z,1.58
2019-03-15T04:29:36.228Z,1.47
2019-03-15T04:32:04.895Z,1.53
2019-03-15T04:34:33.576Z,1.57
2019-03-15T04:37:02.309Z,1.60
2019-03-15T04:39:30.976Z,1.55
2019-03-15T04:41:59.769Z,1.50
2019-03-15T04:44:28.447Z,1.65
2019-03-15T04:46:57.302Z,1.71
2019-03-15T04:49:25.976Z,1.70
2019-03-15T04:51:54.647Z,1.69
2019-03-15T04:54:23.344Z,1.71
2019-03-15T04:56:52.023Z,1.68
2019-03-15T04:59:23.878Z,1.59
2019-03-15T05:01:51.094Z,1.48
2019-03-15T05:04:19.790Z,1.47
2019-03-15T05:06:48.468Z,1.70
2019-03-15T05:09:17.208Z,1.93
2019-03-15T05:11:45.873Z,2.16
2019-03-15T05:14:14.535Z,2.45
2019-03-15T05:16:43.210Z,2.75
2019-03-15T05:19:11.933Z,2.98
2019-03-15T05:21:40.907Z,3.11
2019-03-15T05:24:09.640Z,3.20
2019-03-15T05:26:38.322Z,3.27
2019-03-15T05:29:06.997Z,3.41
2019-03-15T05:31:35.670Z,3.64
2019-03-15T05:34:04.403Z,3.77
2019-03-15T05:36:33.071Z,3.66
2019-03-15T05:39:01.743Z,3.91
2019-03-15T05:41:30.418Z,4.19
2019-03-15T05:43:59.103Z,4.52
2019-03-15T05:46:27.773Z,4.77
2019-03-15T05:48:56.445Z,5.35
2019-03-15T05:51:25.269Z,5.81
2019-03-15T05:53:53.965Z,6.10
2019-03-15T05:56:22.633Z,5.92
2019-03-15T05:58:51.322Z,6.12
2019-03-15T06:01:20.272Z,5.56
2019-03-15T06:03:49.459Z,5.50
2019-03-15T06:06:18.398Z,5.92
2019-03-15T06:08:47.067Z,6.08
2019-03-15T06:11:15.834Z,6.44
2019-03-15T06:13:44.503Z,6.96
2019-03-15T06:16:13.176Z,7.20
2019-03-15T06:18:41.862Z,7.73
2019-03-15T06:21:10.531Z,7.53
2019-03-15T06:23:39.227Z,7.60
2019-03-15T06:26:07.877Z,7.78
2019-03-15T06:28:36.547Z,8.52
2019-03-15T06:31:05.217Z,8.30
2019-03-15T06:33:33.994Z,8.73
2019-03-15T06:36:02.710Z,8.95
2019-03-15T06:38:33.504Z,9.20
2019-03-15T06:41:01.801Z,8.54
2019-03-15T06:43:30.819Z,8.84
2019-03-15T06:45:59.918Z,9.83
2019-03-15T06:48:28.598Z,9.99
2019-03-15T06:50:57.308Z,9.70
2019-03-15T06:53:26.923Z,9.31
2019-03-15T06:55:55.648Z,9.33
2019-03-15T06:58:24.362Z,9.84
2019-03-15T07:00:54.717Z,10.05
2019-03-15T07:03:23.406Z,10.44
2019-03-15T07:05:52.088Z,10.61
2019-03-15T07:08:20.914Z,11.34
2019-03-15T07:10:49.792Z,11.07
2019-03-15T07:13:18.653Z,11.41
2019-03-15T07:15:47.738Z,11.98
2019-03-15T07:18:18.703Z,11.86
2019-03-15T07:20:48.015Z,12.27
2019-03-15T07:23:16.700Z,12.90
2019-03-15T07:25:45.463Z,13.95
2019-03-15T07:28:14.412Z,14.11
2019-03-15T07:30:43.059Z,14.27
2019-03-15T07:33:11.778Z,15.24
2019-03-15T07:35:40.497Z,15.42
2019-03-15T07:38:09.355Z,14.16
2019-03-15T07:40:38.001Z,13.98
2019-03-15T07:43:06.692Z,14.30
2019-03-15T07:45:35.383Z,13.40
2019-03-15T07:48:04.397Z,13.55
2019-03-15T07:50:33.081Z,14.19
2019-03-15T07:53:01.981Z,14.14
2019-03-15T07:55:30.745Z,14.32
2019-03-15T07:57:59.644Z,15.30
2019-03-15T08:00:28.382Z,15.90
2019-03-15T08:02:57.063Z,16.76
2019-03-15T08:05:25.877Z,16.79
2019-03-15T08:07:54.546Z,15.99
2019-03-15T08:10:23.226Z,16.44
2019-03-15T08:12:52.153Z,16.84
2019-03-15T08:15:20.807Z,16.57
2019-03-15T08:17:49.507Z,16.51
2019-03-15T08:20:18.206Z,16.72
2019-03-15T08:22:46.870Z,16.37
2019-03-15T08:25:15.837Z,16.90
2019-03-15T08:27:44.536Z,18.15
2019-03-15T08:30:15.480Z,17.31
2019-03-15T08:32:44.379Z,17.31
2019-03-15T08:35:13.766Z,18.97
2019-03-15T08:37:42.781Z,19.71
2019-03-15T08:40:13.678Z,21.00
2019-03-15T08:42:42.491Z,21.84
2019-03-15T08:45:18.886Z,22.45
2019-03-15T08:47:47.767Z,21.19
2019-03-15T08:50:17.984Z,21.83
2019-03-15T08:52:46.690Z,22.37
2019-03-15T08:55:15.827Z,20.19
2019-03-15T08:57:44.567Z,19.53
2019-03-15T09:00:14.763Z,18.99
2019-03-15T09:02:43.582Z,17.30
2019-03-15T09:05:13.741Z,17.20
2019-03-15T09:07:42.534Z,19.24
2019-03-15T09:10:23.831Z,20.62
2019-03-15T09:12:49.623Z,20.98
2019-03-15T09:15:18.340Z,21.22
2019-03-15T09:17:47.187Z,20.41
2019-03-15T09:20:16.487Z,22.18
2019-03-15T09:22:45.562Z,21.92
2019-03-15T09:25:20.142Z,21.00
2019-03-15T09:27:49.344Z,21.78
2019-03-15T09:30:23.812Z,21.83
2019-03-15T09:32:49.174Z,21.78
2019-03-15T09:35:18.063Z,22.33
2019-03-15T09:37:47.859Z,23.63
2019-03-15T09:40:17.047Z,23.92
2019-03-15T09:42:47.536Z,23.32
2019-03-15T09:45:18.378Z,22.26
2019-03-15T09:47:47.472Z,22.76
2019-03-15T09:50:26.554Z,23.57
2019-03-15T09:52:47.704Z,23.64
2019-03-15T09:55:17.019Z,23.98
2019-03-15T09:57:45.712Z,23.00
2019-03-15T10:00:21.092Z,21.67
2019-03-15T10:02:49.981Z,22.75
2019-03-15T10:05:18.668Z,21.98
2019-03-15T10:07:47.389Z,22.92
2019-03-15T10:10:20.065Z,23.06
2019-03-15T10:12:48.788Z,21.64
2019-03-15T10:15:18.153Z,22.47
2019-03-15T10:17:46.840Z,21.26
2019-03-15T10:20:16.276Z,21.26
2019-03-15T10:22:45.135Z,22.77
2019-03-15T10:25:17.397Z,25.08
2019-03-15T10:27:46.228Z,25.58
2019-03-15T10:30:17.539Z,24.91
2019-03-15T10:32:46.731Z,26.94
2019-03-15T10:35:15.717Z,25.43
2019-03-15T10:37:44.395Z,22.05
2019-03-15T10:40:18.623Z,22.44
2019-03-15T10:42:47.284Z,23.40
2019-03-15T10:45:16.191Z,23.57
2019-03-15T10:47:44.864Z,25.66
2019-03-15T10:50:15.337Z,26.84
2019-03-15T10:52:44.027Z,26.17
2019-03-15T10:55:13.253Z,23.04
2019-03-15T10:57:42.226Z,23.74
2019-03-15T11:00:23.184Z,23.81
2019-03-15T11:02:52.006Z,24.59
2019-03-15T11:05:20.911Z,26.02
2019-03-15T11:07:49.952Z,25.95
2019-03-15T11:10:20.094Z,25.40
2019-03-15T11:12:48.769Z,24.45
2019-03-15T11:15:17.469Z,25.70
2019-03-15T11:17:46.207Z,24.30
2019-03-15T11:20:14.868Z,24.99
2019-03-15T11:22:43.560Z,26.69
2019-03-15T11:25:15.179Z,27.94
2019-03-15T11:27:43.851Z,27.29
2019-03-15T11:30:14.774Z,29.70
2019-03-15T11:32:43.448Z,27.80
2019-03-15T11:35:12.587Z,28.93
2019-03-15T11:37:41.337Z,28.04
2019-03-15T11:40:15.174Z,28.21
2019-03-15T11:42:44.436Z,29.85
2019-03-15T11:45:14.206Z,29.90
2019-03-15T11:48:01.925Z,30.22
2019-03-15T11:50:16.453Z,31.50
2019-03-15T11:52:45.111Z,28.60
2019-03-15T11:55:13.828Z,28.79
2019-03-15T11:57:42.644Z,27.59
2019-03-15T12:00:14.358Z,27.81
2019-03-15T12:02:43.076Z,25.43
2019-03-15T12:05:12.364Z,26.35
2019-03-15T12:07:40.979Z,25.14
2019-03-15T12:10:12.375Z,24.47
2019-03-15T12:12:41.102Z,25.46
2019-03-15T12:15:14.593Z,25.97
2019-03-15T12:17:43.326Z,24.42
2019-03-15T12:20:12.889Z,23.08
2019-03-15T12:22:41.625Z,25.15
2019-03-15T12:25:11.002Z,25.60
2019-03-15T12:27:39.789Z,23.21
2019-03-15T12:30:16.370Z,19.72
2019-03-15T12:32:45.042Z,18.44
2019-03-15T12:35:14.958Z,20.18
2019-03-15T12:37:43.786Z,21.93
2019-03-15T12:40:14.539Z,25.52
2019-03-15T12:42:43.425Z,27.22
2019-03-15T12:45:13.094Z,26.24
2019-03-15T12:47:41.780Z,26.70
2019-03-15T12:50:11.655Z,27.70
2019-03-15T12:52:47.765Z,27.00
2019-03-15T12:55:12.187Z,27.13
2019-03-15T12:57:40.943Z,27.53
2019-03-15T13:00:18.464Z,26.68
2019-03-15T13:02:47.286Z,27.95
2019-03-15T13:05:15.973Z,27.19
2019-03-15T13:07:44.745Z,26.56
2019-03-15T13:10:17.837Z,25.03
2019-03-15T13:12:47.461Z,25.56
2019-03-15T13:15:19.846Z,24.99
2019-03-15T13:17:48.520Z,24.86
2019-03-15T13:20:18.039Z,24.50
2019-03-15T13:22:46.811Z,25.15
2019-03-15T13:25:15.484Z,23.70
2019-03-15T13:27:44.199Z,25.67
2019-03-15T13:30:14.140Z,25.78
2019-03-15T13:32:43.039Z,24.48
2019-03-15T13:35:12.475Z,25.06
2019-03-15T13:37:43.160Z,25.64
2019-03-15T13:40:16.412Z,25.09
2019-03-15T13:42:45.091Z,23.61
2019-03-15T13:45:14.874Z,23.88
2019-03-15T13:47:50.913Z,22.18
2019-03-15T13:50:21.106Z,22.68
2019-03-15T13:52:49.795Z,21.39
2019-03-15T13:55:22.085Z,20.23
2019-03-15T13:57:51.093Z,18.34
2019-03-15T14:00:20.677Z,18.34
2019-03-15T14:02:49.534Z,17.07
2019-03-15T14:05:18.232Z,16.39
2019-03-15T14:07:46.951Z,15.67
2019-03-15T14:10:17.822Z,15.32
2019-03-15T14:12:46.468Z,16.65
2019-03-15T14:15:20.208Z,17.44
2019-03-15T14:17:48.870Z,15.35
2019-03-15T14:20:17.586Z,14.32
2019-03-15T14:22:46.274Z,13.90
2019-03-15T14:25:17.553Z,13.78
2019-03-15T14:27:46.547Z,13.83
2019-03-15T14:30:15.963Z,13.47
2019-03-15T14:32:44.977Z,13.28
2019-03-15T14:35:13.841Z,13.18
2019-03-15T14:37:42.880Z,12.68
2019-03-15T14:40:12.341Z,12.34
2019-03-15T14:42:41.227Z,12.02
2019-03-15T14:45:16.455Z,11.90
2019-03-15T14:47:45.728Z,11.84
2019-03-15T14:50:15.401Z,11.71
2019-03-15T14:52:44.092Z,11.60
2019-03-15T14:55:17.239Z,11.57
2019-03-15T14:57:52.690Z,11.56
2019-03-15T15:00:21.363Z,11.46
2019-03-15T15:02:50.251Z,11.41
2019-03-15T15:05:18.921Z,11.55
2019-03-15T15:07:47.645Z,11.48
2019-03-15T15:10:19.629Z,11.49
2019-03-15T15:12:48.313Z,11.46
2019-03-15T15:15:21.436Z,11.32
2019-03-15T15:17:50.255Z,11.31
2019-03-15T15:20:19.122Z,11.24
2019-03-15T15:22:48.024Z,11.19
2019-03-15T15:25:17.580Z,11.14
2019-03-15T15:27:46.253Z,11.21
2019-03-15T15:30:15.895Z,11.09
2019-03-15T15:32:44.844Z,11.30
2019-03-15T15:35:14.436Z,11.33
2019-03-15T15:37:43.435Z,11.48
2019-03-15T15:40:18.653Z,11.60
2019-03-15T15:42:47.553Z,11.67
2019-03-15T15:45:16.310Z,11.51
2019-03-15T15:47:45.014Z,11.22
2019-03-15T15:50:15.777Z,11.22
2019-03-15T15:52:44.860Z,11.18
2019-03-15T15:55:15.571Z,11.09
2019-03-15T15:57:44.607Z,10.87
2019-03-15T16:00:14.670Z,10.78
2019-03-15T16:02:43.365Z,10.63
2019-03-15T16:05:12.474Z,10.46
2019-03-15T16:07:41.172Z,10.45
2019-03-15T16:10:12.813Z,10.47
2019-03-15T16:12:41.697Z,10.37
2019-03-15T16:15:18.130Z,10.24
2019-03-15T16:17:46.796Z,10.19
2019-03-15T16:20:15.597Z,10.07
2019-03-15T16:22:44.300Z,9.96
2019-03-15T16:25:13.606Z,9.85
2019-03-15T16:27:42.279Z,9.68
2019-03-15T16:30:15.796Z,9.53
2019-03-15T16:32:44.725Z,9.44
2019-03-15T16:35:14.709Z,9.38
2019-03-15T16:37:43.478Z,9.30
2019-03-15T16:40:13.957Z,9.18
2019-03-15T16:42:42.631Z,9.03
2019-03-15T16:45:29.282Z,8.96
2019-03-15T16:47:57.922Z,8.88
2019-03-15T16:50:26.592Z,8.79
2019-03-15T16:52:55.390Z,8.73
2019-03-15T16:55:24.052Z,8.64
2019-03-15T16:57:52.950Z,8.54
2019-03-15T17:00:21.627Z,8.50
2019-03-15T17:02:50.290Z,8.44
2019-03-15T17:05:18.983Z,8.33
2019-03-15T17:07:47.688Z,8.30
2019-03-15T17:10:17.892Z,8.18
2019-03-15T17:12:46.553Z,8.14
2019-03-15T17:15:25.690Z,8.21
2019-03-15T17:17:54.507Z,8.21
2019-03-15T17:20:23.208Z,8.23
2019-03-15T17:22:51.981Z,8.25
2019-03-15T17:25:20.653Z,8.21
2019-03-15T17:27:49.399Z,8.14
2019-03-15T17:30:18.592Z,8.08
2019-03-15T17:32:47.302Z,8.00
2019-03-15T17:35:20.719Z,7.91
2019-03-15T17:37:49.446Z,7.80
2019-03-15T17:40:21.924Z,7.72
2019-03-15T17:42:50.781Z,7.70
2019-03-15T17:45:19.505Z,7.69
2019-03-15T17:47:48.225Z,7.62
2019-03-15T17:50:25.073Z,7.71
2019-03-15T17:52:53.731Z,7.78
2019-03-15T17:55:22.617Z,7.97
2019-03-15T17:57:51.465Z,8.10
2019-03-15T18:00:27.264Z,8.15
2019-03-15T18:02:56.057Z,8.23
2019-03-15T18:05:24.823Z,8.15
2019-03-15T18:07:53.486Z,8.09
2019-03-15T18:10:22.478Z,8.09
2019-03-15T18:12:51.128Z,8.01
2019-03-15T18:15:19.798Z,7.91
2019-03-15T18:17:48.453Z,7.76
2019-03-15T18:20:17.125Z,7.69
2019-03-15T18:22:45.791Z,7.64
2019-03-15T18:25:15.134Z,7.53
2019-03-15T18:27:43.790Z,7.53
2019-03-15T18:30:16.978Z,7.49
2019-03-15T18:32:46.087Z,7.49
2019-03-15T18:35:15.151Z,7.43
2019-03-15T18:37:43.809Z,7.43
2019-03-15T18:40:21.800Z,7.46
2019-03-15T18:42:50.458Z,7.41
2019-03-15T18:45:19.554Z,7.37
2019-03-15T18:47:48.216Z,7.31
2019-03-15T18:50:19.505Z,7.30
2019-03-15T18:52:48.301Z,7.28
2019-03-15T18:55:17.180Z,7.30
2019-03-15T18:57:46.306Z,7.24
2019-03-15T19:00:17.074Z,7.19
2019-03-15T19:02:45.745Z,7.27
2019-03-15T19:05:14.666Z,7.22
2019-03-15T19:07:43.470Z,7.21
2019-03-15T19:10:15.704Z,7.24
2019-03-15T19:12:44.580Z,7.21
2019-03-15T19:15:15.194Z,7.13
2019-03-15T19:17:44.057Z,7.15
2019-03-15T19:20:17.162Z,7.15
2019-03-15T19:22:46.161Z,7.12
2019-03-15T19:25:15.790Z,7.14
2019-03-15T19:27:44.567Z,6.99
2019-03-15T19:30:18.136Z,7.13
2019-03-15T19:32:46.802Z,7.15
2019-03-15T19:35:15.449Z,7.24
2019-03-15T19:37:44.111Z,7.28
2019-03-15T19:40:17.811Z,7.34
2019-03-15T19:42:46.621Z,7.29
2019-03-15T19:45:16.066Z,7.04
2019-03-15T19:47:44.727Z,7.22
2019-03-15T19:50:15.262Z,7.21
2019-03-15T19:52:43.920Z,7.27
2019-03-15T19:55:13.894Z,7.49
2019-03-15T19:57:42.552Z,7.55
2019-03-15T20:00:22.377Z,7.55
2019-03-15T20:02:51.095Z,7.61
2019-03-15T20:05:19.746Z,7.62
2019-03-15T20:07:48.565Z,7.62
2019-03-15T20:10:17.602Z,7.62
2019-03-15T20:12:46.383Z,7.58
2019-03-15T20:15:16.731Z,7.50
2019-03-15T20:17:45.797Z,7.49
2019-03-15T20:20:17.384Z,7.45
2019-03-15T20:22:46.106Z,7.44
2019-03-15T20:25:15.795Z,7.39
2019-03-15T20:27:44.449Z,7.30
2019-03-15T20:30:21.195Z,7.31
2019-03-15T20:32:45.600Z,7.26
2019-03-15T20:35:14.489Z,7.21
2019-03-15T20:37:43.142Z,7.29
2019-03-15T20:40:15.622Z,7.36
2019-03-15T20:42:44.272Z,7.43
2019-03-15T20:45:15.551Z,7.49
2019-03-15T20:47:44.203Z,7.52
2019-03-15T20:50:14.408Z,7.49
2019-03-15T20:52:43.074Z,7.43
2019-03-15T20:55:11.687Z,7.44
2019-03-15T20:57:40.365Z,7.39
2019-03-15T21:00:17.039Z,7.34
2019-03-15T21:02:45.737Z,7.33
2019-03-15T21:05:14.508Z,7.13
2019-03-15T21:07:44.114Z,7.25
2019-03-15T21:10:20.490Z,7.19
2019-03-15T21:12:52.156Z,7.23
2019-03-15T21:15:20.931Z,7.11
2019-03-15T21:17:50.144Z,7.10
2019-03-15T21:20:22.615Z,7.14
2019-03-15T21:22:50.586Z,7.08
2019-03-15T21:25:19.214Z,6.96
2019-03-15T21:27:54.222Z,7.04
2019-03-15T21:30:20.449Z,6.97
2019-03-15T21:32:49.082Z,7.04
2019-03-15T21:35:17.755Z,6.97
2019-03-15T21:37:46.425Z,6.95
2019-03-15T21:40:16.294Z,6.96
2019-03-15T21:42:44.941Z,6.93
2019-03-15T21:45:14.211Z,6.88
2019-03-15T21:47:42.886Z,6.93
2019-03-15T21:50:16.660Z,6.88
2019-03-15T21:52:45.343Z,6.83
2019-03-15T21:55:14.541Z,6.73
2019-03-15T21:57:43.183Z,6.73
2019-03-15T22:00:16.810Z,6.60
2019-03-15T22:02:45.468Z,6.46
2019-03-15T22:05:14.131Z,6.27
2019-03-15T22:07:42.802Z,6.23
2019-03-15T22:10:15.594Z,6.07
2019-03-15T22:12:44.256Z,5.86
2019-03-15T22:15:14.279Z,5.80
2019-03-15T22:17:43.219Z,5.66
2019-03-15T22:20:16.221Z,5.58
2019-03-15T22:22:44.853Z,5.53
2019-03-15T22:25:13.636Z,5.54
2019-03-15T22:27:42.284Z,5.47
2019-03-15T22:30:16.825Z,5.42
2019-03-15T22:32:45.516Z,5.28
2019-03-15T22:35:14.209Z,5.13
2019-03-15T22:37:42.879Z,5.03
2019-03-15T22:40:13.116Z,4.89
2019-03-15T22:42:41.777Z,4.74
2019-03-15T22:45:11.645Z,4.61
2019-03-15T22:47:40.317Z,4.62
2019-03-15T22:50:10.884Z,4.48
2019-03-15T22:52:39.618Z,4.43
2019-03-15T22:55:10.132Z,4.24
2019-03-15T22:57:38.879Z,4.27
2019-03-15T23:00:18.328Z,4.15
2019-03-15T23:02:47.076Z,4.06
2019-03-15T23:05:15.702Z,3.97
2019-03-15T23:07:44.435Z,3.81
2019-03-15T23:10:13.581Z,3.61
2019-03-15T23:12:42.241Z,3.87
2019-03-15T23:15:12.305Z,3.88
2019-03-15T23:17:40.971Z,3.90
2019-03-15T23:20:13.867Z,3.90
2019-03-15T23:22:42.604Z,3.90
2019-03-15T23:25:11.473Z,3.83
2019-03-15T23:27:40.134Z,3.54
2019-03-15T23:30:11.836Z,3.77
2019-03-15T23:32:40.496Z,3.77
2019-03-15T23:35:09.271Z,3.83
2019-03-15T23:37:37.945Z,3.82
2019-03-15T23:40:09.230Z,3.82
2019-03-15T23:42:37.898Z,3.89
2019-03-15T23:45:11.556Z,3.66
2019-03-15T23:47:40.232Z,3.71
2019-03-15T23:50:13.806Z,3.49
2019-03-15T23:52:42.580Z,3.54
2019-03-15T23:55:11.268Z,3.50
2019-03-15T23:57:40.270Z,3.44
